sensor_id;sensor_type;location;lat;lon;timestamp;P1;durP1;ratioP1;P2;durP2;ratioP2
11598;SDS011;5855;48.840;9.188;2023-09-07T00:01:34;5.05;;;4.55;;
11598;SDS011;5855;48.840;9.188;2023-09-07T00:04:01;6.40;;;4.82;;
11598;SDS011;5855;48.840;9.188;2023-09-07T00:06:29;6.43;;;5.05;;
11598;SDS011;5855;48.840;9.188;2023-09-07T00:08:55;5.53;;;4.75;;
11598;SDS011;5855;48.840;9.188;2023-09-07T00:11:22;6.00;;;4.93;;
11598;SDS011;5855;48.840;9.188;2023-09-07T00:13:49;5.75;;;4.68;;
11598;SDS011;5855;48.840;9.188;2023-09-07T00:16:17;6.32;;;4.85;;
11598;SDS011;5855;48.840;9.188;2023-09-07T00:18:44;5.47;;;4.43;;
11598;SDS011;5855;48.840;9.188;2023-09-07T00:21:11;5.57;;;4.53;;
11598;SDS011;5855;48.840;9.188;2023-09-07T00:23:39;8.88;;;4.75;;
11598;SDS011;5855;48.840;9.188;2023-09-07T00:26:06;5.18;;;4.35;;
11598;SDS011;5855;48.840;9.188;2023-09-07T00:28:33;6.25;;;5.30;;
11598;SDS011;5855;48.840;9.188;2023-09-07T00:31:00;6.50;;;4.43;;
11598;SDS011;5855;48.840;9.188;2023-09-07T00:33:28;5.55;;;4.80;;
11598;SDS011;5855;48.840;9.188;2023-09-07T00:35:55;6.85;;;4.53;;
11598;SDS011;5855;48.840;9.188;2023-09-07T00:38:22;5.30;;;4.57;;
11598;SDS011;5855;48.840;9.188;2023-09-07T00:40:48;7.45;;;4.60;;
11598;SDS011;5855;48.840;9.188;2023-09-07T00:43:15;8.18;;;4.95;;
11598;SDS011;5855;48.840;9.188;2023-09-07T00:45:42;6.15;;;4.63;;
11598;SDS011;5855;48.840;9.188;2023-09-07T00:48:09;5.53;;;4.85;;
11598;SDS011;5855;48.840;9.188;2023-09-07T00:50:40;5.10;;;4.20;;
11598;SDS011;5855;48.840;9.188;2023-09-07T00:53:07;6.18;;;4.65;;
11598;SDS011;5855;48.840;9.188;2023-09-07T00:55:34;6.35;;;4.40;;
11598;SDS011;5855;48.840;9.188;2023-09-07T00:58:03;6.43;;;4.53;;
11598;SDS011;5855;48.840;9.188;2023-09-07T01:00:30;8.00;;;4.63;;
11598;SDS011;5855;48.840;9.188;2023-09-07T01:02:58;5.78;;;4.28;;
11598;SDS011;5855;48.840;9.188;2023-09-07T01:05:27;5.63;;;4.70;;
11598;SDS011;5855;48.840;9.188;2023-09-07T01:08:01;6.45;;;4.82;;
11598;SDS011;5855;48.840;9.188;2023-09-07T01:10:33;7.20;;;4.47;;
11598;SDS011;5855;48.840;9.188;2023-09-07T01:13:00;5.18;;;4.32;;
11598;SDS011;5855;48.840;9.188;2023-09-07T01:15:27;7.85;;;4.75;;
11598;SDS011;5855;48.840;9.188;2023-09-07T01:17:54;5.25;;;4.50;;
11598;SDS011;5855;48.840;9.188;2023-09-07T01:20:22;5.53;;;4.43;;
11598;SDS011;5855;48.840;9.188;2023-09-07T01:22:52;6.20;;;4.85;;
11598;SDS011;5855;48.840;9.188;2023-09-07T01:25:20;7.07;;;4.65;;
11598;SDS011;5855;48.840;9.188;2023-09-07T01:27:47;6.40;;;4.60;;
11598;SDS011;5855;48.840;9.188;2023-09-07T01:30:16;6.25;;;4.57;;
11598;SDS011;5855;48.840;9.188;2023-09-07T01:32:43;5.28;;;4.57;;
11598;SDS011;5855;48.840;9.188;2023-09-07T01:35:10;8.02;;;4.82;;
11598;SDS011;5855;48.840;9.188;2023-09-07T01:37:41;5.28;;;4.50;;
11598;SDS011;5855;48.840;9.188;2023-09-07T01:40:10;9.40;;;4.63;;
11598;SDS011;5855;48.840;9.188;2023-09-07T01:42:37;6.53;;;4.88;;
11598;SDS011;5855;48.840;9.188;2023-09-07T01:45:04;6.50;;;4.82;;
11598;SDS011;5855;48.840;9.188;2023-09-07T01:47:31;5.97;;;4.20;;
11598;SDS011;5855;48.840;9.188;2023-09-07T01:49:58;5.53;;;4.57;;
11598;SDS011;5855;48.840;9.188;2023-09-07T01:52:25;4.88;;;4.43;;
11598;SDS011;5855;48.840;9.188;2023-09-07T01:54:52;7.00;;;4.65;;
11598;SDS011;5855;48.840;9.188;2023-09-07T01:57:20;4.93;;;4.45;;
11598;SDS011;5855;48.840;9.188;2023-09-07T01:59:47;6.15;;;4.93;;
11598;SDS011;5855;48.840;9.188;2023-09-07T02:02:14;6.35;;;4.75;;
11598;SDS011;5855;48.840;9.188;2023-09-07T02:04:41;6.68;;;4.00;;
11598;SDS011;5855;48.840;9.188;2023-09-07T02:07:10;8.35;;;4.63;;
11598;SDS011;5855;48.840;9.188;2023-09-07T02:09:37;5.40;;;4.07;;
11598;SDS011;5855;48.840;9.188;2023-09-07T02:12:04;5.07;;;4.53;;
11598;SDS011;5855;48.840;9.188;2023-09-07T02:14:33;4.75;;;4.25;;
11598;SDS011;5855;48.840;9.188;2023-09-07T02:17:00;6.95;;;4.38;;
11598;SDS011;5855;48.840;9.188;2023-09-07T02:19:28;7.38;;;4.70;;
11598;SDS011;5855;48.840;9.188;2023-09-07T02:21:55;8.18;;;4.85;;
11598;SDS011;5855;48.840;9.188;2023-09-07T02:24:21;5.85;;;4.32;;
11598;SDS011;5855;48.840;9.188;2023-09-07T02:26:48;4.97;;;4.47;;
11598;SDS011;5855;48.840;9.188;2023-09-07T02:29:15;7.18;;;4.82;;
11598;SDS011;5855;48.840;9.188;2023-09-07T02:31:43;8.30;;;4.90;;
11598;SDS011;5855;48.840;9.188;2023-09-07T02:34:10;6.03;;;4.38;;
11598;SDS011;5855;48.840;9.188;2023-09-07T02:36:37;5.80;;;4.28;;
11598;SDS011;5855;48.840;9.188;2023-09-07T02:39:04;6.95;;;4.40;;
11598;SDS011;5855;48.840;9.188;2023-09-07T02:41:33;5.65;;;4.30;;
11598;SDS011;5855;48.840;9.188;2023-09-07T02:44:00;4.80;;;4.30;;
11598;SDS011;5855;48.840;9.188;2023-09-07T02:46:28;5.93;;;4.20;;
11598;SDS011;5855;48.840;9.188;2023-09-07T02:48:56;4.82;;;4.18;;
11598;SDS011;5855;48.840;9.188;2023-09-07T02:51:23;5.43;;;4.80;;
11598;SDS011;5855;48.840;9.188;2023-09-07T02:53:50;5.97;;;4.45;;
11598;SDS011;5855;48.840;9.188;2023-09-07T02:56:16;6.95;;;4.80;;
11598;SDS011;5855;48.840;9.188;2023-09-07T02:58:43;8.85;;;4.88;;
11598;SDS011;5855;48.840;9.188;2023-09-07T03:01:11;8.93;;;5.05;;
11598;SDS011;5855;48.840;9.188;2023-09-07T03:03:38;6.93;;;4.80;;
11598;SDS011;5855;48.840;9.188;2023-09-07T03:06:09;5.22;;;4.50;;
11598;SDS011;5855;48.840;9.188;2023-09-07T03:08:37;9.10;;;5.18;;
11598;SDS011;5855;48.840;9.188;2023-09-07T03:11:03;7.45;;;4.78;;
11598;SDS011;5855;48.840;9.188;2023-09-07T03:13:31;7.97;;;4.80;;
11598;SDS011;5855;48.840;9.188;2023-09-07T03:15:58;6.30;;;4.75;;
11598;SDS011;5855;48.840;9.188;2023-09-07T03:18:25;8.60;;;5.07;;
11598;SDS011;5855;48.840;9.188;2023-09-07T03:20:53;6.47;;;4.63;;
11598;SDS011;5855;48.840;9.188;2023-09-07T03:23:23;5.38;;;4.60;;
11598;SDS011;5855;48.840;9.188;2023-09-07T03:25:50;5.03;;;4.43;;
11598;SDS011;5855;48.840;9.188;2023-09-07T03:28:17;8.48;;;4.55;;
11598;SDS011;5855;48.840;9.188;2023-09-07T03:30:43;7.15;;;4.75;;
11598;SDS011;5855;48.840;9.188;2023-09-07T03:33:10;5.30;;;4.75;;
11598;SDS011;5855;48.840;9.188;2023-09-07T03:35:37;6.85;;;5.13;;
11598;SDS011;5855;48.840;9.188;2023-09-07T03:38:07;5.93;;;5.20;;
11598;SDS011;5855;48.840;9.188;2023-09-07T03:40:35;5.40;;;4.90;;
11598;SDS011;5855;48.840;9.188;2023-09-07T03:43:02;5.95;;;4.75;;
11598;SDS011;5855;48.840;9.188;2023-09-07T03:45:29;5.15;;;4.00;;
11598;SDS011;5855;48.840;9.188;2023-09-07T03:47:56;7.03;;;4.43;;
11598;SDS011;5855;48.840;9.188;2023-09-07T03:50:23;5.30;;;4.60;;
11598;SDS011;5855;48.840;9.188;2023-09-07T03:52:50;5.45;;;4.32;;
11598;SDS011;5855;48.840;9.188;2023-09-07T03:55:17;5.38;;;4.88;;
11598;SDS011;5855;48.840;9.188;2023-09-07T03:57:45;5.25;;;4.30;;
11598;SDS011;5855;48.840;9.188;2023-09-07T04:00:13;7.10;;;4.70;;
11598;SDS011;5855;48.840;9.188;2023-09-07T04:02:41;4.82;;;4.35;;
11598;SDS011;5855;48.840;9.188;2023-09-07T04:05:08;5.70;;;4.40;;
11598;SDS011;5855;48.840;9.188;2023-09-07T04:07:35;7.32;;;5.15;;
11598;SDS011;5855;48.840;9.188;2023-09-07T04:10:03;7.60;;;4.80;;
11598;SDS011;5855;48.840;9.188;2023-09-07T04:12:30;5.90;;;4.60;;
11598;SDS011;5855;48.840;9.188;2023-09-07T04:14:59;5.32;;;4.43;;
11598;SDS011;5855;48.840;9.188;2023-09-07T04:17:27;6.85;;;4.40;;
11598;SDS011;5855;48.840;9.188;2023-09-07T04:19:54;5.70;;;4.50;;
11598;SDS011;5855;48.840;9.188;2023-09-07T04:22:21;6.82;;;4.65;;
11598;SDS011;5855;48.840;9.188;2023-09-07T04:24:47;5.90;;;4.68;;
11598;SDS011;5855;48.840;9.188;2023-09-07T04:27:14;5.63;;;4.88;;
11598;SDS011;5855;48.840;9.188;2023-09-07T04:29:41;5.68;;;4.75;;
11598;SDS011;5855;48.840;9.188;2023-09-07T04:32:09;6.97;;;4.47;;
11598;SDS011;5855;48.840;9.188;2023-09-07T04:34:36;5.20;;;4.70;;
11598;SDS011;5855;48.840;9.188;2023-09-07T04:37:04;6.18;;;4.93;;
11598;SDS011;5855;48.840;9.188;2023-09-07T04:39:30;9.38;;;5.80;;
11598;SDS011;5855;48.840;9.188;2023-09-07T04:41:58;6.30;;;5.68;;
11598;SDS011;5855;48.840;9.188;2023-09-07T04:44:25;7.25;;;5.38;;
11598;SDS011;5855;48.840;9.188;2023-09-07T04:46:54;7.53;;;5.32;;
11598;SDS011;5855;48.840;9.188;2023-09-07T04:49:22;7.43;;;5.03;;
11598;SDS011;5855;48.840;9.188;2023-09-07T04:51:49;6.10;;;5.22;;
11598;SDS011;5855;48.840;9.188;2023-09-07T04:54:18;7.45;;;5.40;;
11598;SDS011;5855;48.840;9.188;2023-09-07T04:56:45;8.25;;;5.30;;
11598;SDS011;5855;48.840;9.188;2023-09-07T04:59:12;6.32;;;5.40;;
11598;SDS011;5855;48.840;9.188;2023-09-07T05:01:39;5.63;;;5.03;;
11598;SDS011;5855;48.840;9.188;2023-09-07T05:04:06;7.78;;;5.72;;
11598;SDS011;5855;48.840;9.188;2023-09-07T05:06:34;7.88;;;5.55;;
11598;SDS011;5855;48.840;9.188;2023-09-07T05:09:03;6.60;;;5.70;;
11598;SDS011;5855;48.840;9.188;2023-09-07T05:11:32;8.48;;;6.10;;
11598;SDS011;5855;48.840;9.188;2023-09-07T05:13:59;7.82;;;5.68;;
11598;SDS011;5855;48.840;9.188;2023-09-07T05:16:29;7.47;;;5.20;;
11598;SDS011;5855;48.840;9.188;2023-09-07T05:18:56;6.28;;;5.43;;
11598;SDS011;5855;48.840;9.188;2023-09-07T05:21:38;5.60;;;5.03;;
11598;SDS011;5855;48.840;9.188;2023-09-07T05:24:05;6.50;;;5.05;;
11598;SDS011;5855;48.840;9.188;2023-09-07T05:26:32;5.57;;;4.93;;
11598;SDS011;5855;48.840;9.188;2023-09-07T05:28:59;6.40;;;4.90;;
11598;SDS011;5855;48.840;9.188;2023-09-07T05:31:26;5.03;;;4.53;;
11598;SDS011;5855;48.840;9.188;2023-09-07T05:33:53;7.07;;;4.47;;
11598;SDS011;5855;48.840;9.188;2023-09-07T05:36:20;6.28;;;5.10;;
11598;SDS011;5855;48.840;9.188;2023-09-07T05:38:48;5.93;;;5.00;;
11598;SDS011;5855;48.840;9.188;2023-09-07T05:41:15;6.38;;;5.00;;
11598;SDS011;5855;48.840;9.188;2023-09-07T05:43:42;7.38;;;5.57;;
11598;SDS011;5855;48.840;9.188;2023-09-07T05:46:09;9.35;;;6.32;;
11598;SDS011;5855;48.840;9.188;2023-09-07T05:48:36;8.35;;;6.03;;
11598;SDS011;5855;48.840;9.188;2023-09-07T05:51:03;7.90;;;6.55;;
11598;SDS011;5855;48.840;9.188;2023-09-07T05:53:30;8.23;;;5.95;;
11598;SDS011;5855;48.840;9.188;2023-09-07T05:55:58;6.75;;;5.60;;
11598;SDS011;5855;48.840;9.188;2023-09-07T05:58:25;7.45;;;5.85;;
11598;SDS011;5855;48.840;9.188;2023-09-07T06:00:52;7.55;;;5.97;;
11598;SDS011;5855;48.840;9.188;2023-09-07T06:03:20;7.60;;;5.78;;
11598;SDS011;5855;48.840;9.188;2023-09-07T06:05:53;8.52;;;5.80;;
11598;SDS011;5855;48.840;9.188;2023-09-07T06:08:20;8.48;;;5.65;;
11598;SDS011;5855;48.840;9.188;2023-09-07T06:10:47;9.02;;;6.28;;
11598;SDS011;5855;48.840;9.188;2023-09-07T06:13:16;7.10;;;6.28;;
11598;SDS011;5855;48.840;9.188;2023-09-07T06:15:42;10.30;;;6.13;;
11598;SDS011;5855;48.840;9.188;2023-09-07T06:18:09;7.00;;;6.10;;
11598;SDS011;5855;48.840;9.188;2023-09-07T06:20:36;9.07;;;6.78;;
11598;SDS011;5855;48.840;9.188;2023-09-07T06:23:03;7.18;;;6.47;;
11598;SDS011;5855;48.840;9.188;2023-09-07T06:25:30;11.77;;;6.72;;
11598;SDS011;5855;48.840;9.188;2023-09-07T06:27:57;8.85;;;6.97;;
11598;SDS011;5855;48.840;9.188;2023-09-07T06:30:25;9.68;;;6.80;;
11598;SDS011;5855;48.840;9.188;2023-09-07T06:32:52;10.02;;;7.53;;
11598;SDS011;5855;48.840;9.188;2023-09-07T06:35:19;11.15;;;7.30;;
11598;SDS011;5855;48.840;9.188;2023-09-07T06:37:45;9.57;;;6.80;;
11598;SDS011;5855;48.840;9.188;2023-09-07T06:40:12;10.88;;;7.10;;
11598;SDS011;5855;48.840;9.188;2023-09-07T06:42:40;8.30;;;6.57;;
11598;SDS011;5855;48.840;9.188;2023-09-07T06:45:08;8.60;;;6.75;;
11598;SDS011;5855;48.840;9.188;2023-09-07T06:47:36;7.60;;;6.30;;
11598;SDS011;5855;48.840;9.188;2023-09-07T06:50:04;11.77;;;7.43;;
11598;SDS011;5855;48.840;9.188;2023-09-07T06:52:32;10.40;;;6.55;;
11598;SDS011;5855;48.840;9.188;2023-09-07T06:55:00;8.20;;;6.68;;
11598;SDS011;5855;48.840;9.188;2023-09-07T06:57:27;7.45;;;5.97;;
11598;SDS011;5855;48.840;9.188;2023-09-07T06:59:54;8.15;;;5.82;;
11598;SDS011;5855;48.840;9.188;2023-09-07T07:02:21;8.07;;;5.68;;
11598;SDS011;5855;48.840;9.188;2023-09-07T07:04:49;7.70;;;5.93;;
11598;SDS011;5855;48.840;9.188;2023-09-07T07:07:16;8.68;;;6.55;;
11598;SDS011;5855;48.840;9.188;2023-09-07T07:09:43;11.05;;;5.88;;
11598;SDS011;5855;48.840;9.188;2023-09-07T07:12:10;6.60;;;5.55;;
11598;SDS011;5855;48.840;9.188;2023-09-07T07:14:37;7.93;;;5.90;;
11598;SDS011;5855;48.840;9.188;2023-09-07T07:17:04;7.22;;;5.50;;
11598;SDS011;5855;48.840;9.188;2023-09-07T07:19:31;6.53;;;5.50;;
11598;SDS011;5855;48.840;9.188;2023-09-07T07:21:59;8.88;;;5.88;;
11598;SDS011;5855;48.840;9.188;2023-09-07T07:24:26;10.95;;;5.70;;
11598;SDS011;5855;48.840;9.188;2023-09-07T07:26:53;7.10;;;5.32;;
11598;SDS011;5855;48.840;9.188;2023-09-07T07:29:20;6.60;;;5.30;;
11598;SDS011;5855;48.840;9.188;2023-09-07T07:31:46;6.90;;;4.72;;
11598;SDS011;5855;48.840;9.188;2023-09-07T07:34:13;7.10;;;5.10;;
11598;SDS011;5855;48.840;9.188;2023-09-07T07:36:40;5.60;;;5.10;;
11598;SDS011;5855;48.840;9.188;2023-09-07T07:39:08;7.50;;;5.30;;
11598;SDS011;5855;48.840;9.188;2023-09-07T07:41:35;5.63;;;5.05;;
11598;SDS011;5855;48.840;9.188;2023-09-07T07:44:03;6.57;;;4.95;;
11598;SDS011;5855;48.840;9.188;2023-09-07T07:46:30;5.35;;;4.85;;
11598;SDS011;5855;48.840;9.188;2023-09-07T07:48:57;5.35;;;4.85;;
11598;SDS011;5855;48.840;9.188;2023-09-07T07:51:23;7.03;;;5.00;;
11598;SDS011;5855;48.840;9.188;2023-09-07T07:53:51;9.55;;;4.80;;
11598;SDS011;5855;48.840;9.188;2023-09-07T07:56:22;5.78;;;5.03;;
11598;SDS011;5855;48.840;9.188;2023-09-07T07:58:50;6.97;;;5.18;;
11598;SDS011;5855;48.840;9.188;2023-09-07T08:01:17;6.97;;;4.80;;
11598;SDS011;5855;48.840;9.188;2023-09-07T08:03:45;4.90;;;4.18;;
11598;SDS011;5855;48.840;9.188;2023-09-07T08:06:12;4.53;;;3.90;;
11598;SDS011;5855;48.840;9.188;2023-09-07T08:08:39;7.40;;;4.32;;
11598;SDS011;5855;48.840;9.188;2023-09-07T08:11:06;5.15;;;4.50;;
11598;SDS011;5855;48.840;9.188;2023-09-07T08:13:35;5.00;;;3.90;;
11598;SDS011;5855;48.840;9.188;2023-09-07T08:16:03;5.82;;;4.20;;
11598;SDS011;5855;48.840;9.188;2023-09-07T08:18:31;6.75;;;4.25;;
11598;SDS011;5855;48.840;9.188;2023-09-07T08:20:59;7.43;;;3.90;;
11598;SDS011;5855;48.840;9.188;2023-09-07T08:23:29;8.32;;;4.43;;
11598;SDS011;5855;48.840;9.188;2023-09-07T08:25:56;4.55;;;3.83;;
11598;SDS011;5855;48.840;9.188;2023-09-07T08:28:25;4.93;;;4.47;;
11598;SDS011;5855;48.840;9.188;2023-09-07T08:30:55;5.22;;;4.72;;
11598;SDS011;5855;48.840;9.188;2023-09-07T08:33:24;5.43;;;4.45;;
11598;SDS011;5855;48.840;9.188;2023-09-07T08:35:54;6.82;;;4.35;;
11598;SDS011;5855;48.840;9.188;2023-09-07T08:38:20;5.45;;;4.30;;
11598;SDS011;5855;48.840;9.188;2023-09-07T08:40:51;7.65;;;4.43;;
11598;SDS011;5855;48.840;9.188;2023-09-07T08:43:19;6.72;;;5.15;;
11598;SDS011;5855;48.840;9.188;2023-09-07T08:45:49;8.23;;;4.13;;
11598;SDS011;5855;48.840;9.188;2023-09-07T08:48:24;10.70;;;5.07;;
11598;SDS011;5855;48.840;9.188;2023-09-07T08:50:53;5.85;;;4.57;;
11598;SDS011;5855;48.840;9.188;2023-09-07T08:53:21;5.97;;;4.45;;
11598;SDS011;5855;48.840;9.188;2023-09-07T08:55:48;7.47;;;4.53;;
11598;SDS011;5855;48.840;9.188;2023-09-07T08:58:15;5.47;;;3.63;;
11598;SDS011;5855;48.840;9.188;2023-09-07T09:00:42;8.07;;;5.00;;
11598;SDS011;5855;48.840;9.188;2023-09-07T09:03:10;5.68;;;4.47;;
11598;SDS011;5855;48.840;9.188;2023-09-07T09:05:39;4.22;;;3.83;;
11598;SDS011;5855;48.840;9.188;2023-09-07T09:08:06;6.63;;;4.03;;
11598;SDS011;5855;48.840;9.188;2023-09-07T09:10:33;5.25;;;4.10;;
11598;SDS011;5855;48.840;9.188;2023-09-07T09:13:00;5.05;;;3.70;;
11598;SDS011;5855;48.840;9.188;2023-09-07T09:15:27;5.22;;;3.50;;
11598;SDS011;5855;48.840;9.188;2023-09-07T09:17:54;5.43;;;3.75;;
11598;SDS011;5855;48.840;9.188;2023-09-07T09:20:22;4.80;;;4.05;;
11598;SDS011;5855;48.840;9.188;2023-09-07T09:22:58;4.47;;;3.70;;
11598;SDS011;5855;48.840;9.188;2023-09-07T09:25:25;4.55;;;4.10;;
11598;SDS011;5855;48.840;9.188;2023-09-07T09:27:52;5.32;;;3.78;;
11598;SDS011;5855;48.840;9.188;2023-09-07T09:30:19;6.28;;;3.70;;
11598;SDS011;5855;48.840;9.188;2023-09-07T09:32:46;4.50;;;3.80;;
11598;SDS011;5855;48.840;9.188;2023-09-07T09:35:16;6.32;;;3.70;;
11598;SDS011;5855;48.840;9.188;2023-09-07T09:37:44;4.13;;;3.60;;
11598;SDS011;5855;48.840;9.188;2023-09-07T09:40:13;7.60;;;3.80;;
11598;SDS011;5855;48.840;9.188;2023-09-07T09:42:41;4.20;;;3.47;;
11598;SDS011;5855;48.840;9.188;2023-09-07T09:45:09;6.32;;;3.72;;
11598;SDS011;5855;48.840;9.188;2023-09-07T09:47:38;4.03;;;3.63;;
11598;SDS011;5855;48.840;9.188;2023-09-07T09:50:06;5.20;;;3.22;;
11598;SDS011;5855;48.840;9.188;2023-09-07T09:52:34;4.47;;;3.75;;
11598;SDS011;5855;48.840;9.188;2023-09-07T09:55:02;4.00;;;3.70;;
11598;SDS011;5855;48.840;9.188;2023-09-07T09:57:34;4.95;;;4.22;;
11598;SDS011;5855;48.840;9.188;2023-09-07T10:00:01;6.93;;;4.20;;
11598;SDS011;5855;48.840;9.188;2023-09-07T10:02:44;4.85;;;4.18;;
11598;SDS011;5855;48.840;9.188;2023-09-07T10:05:15;5.90;;;3.85;;
11598;SDS011;5855;48.840;9.188;2023-09-07T10:07:44;4.57;;;3.80;;
11598;SDS011;5855;48.840;9.188;2023-09-07T10:10:13;3.97;;;3.55;;
11598;SDS011;5855;48.840;9.188;2023-09-07T10:12:42;5.43;;;3.90;;
11598;SDS011;5855;48.840;9.188;2023-09-07T10:15:19;5.93;;;4.20;;
11598;SDS011;5855;48.840;9.188;2023-09-07T10:17:49;5.13;;;3.67;;
11598;SDS011;5855;48.840;9.188;2023-09-07T10:20:18;3.38;;;3.08;;
11598;SDS011;5855;48.840;9.188;2023-09-07T10:22:48;3.90;;;3.50;;
11598;SDS011;5855;48.840;9.188;2023-09-07T10:25:19;5.72;;;3.78;;
11598;SDS011;5855;48.840;9.188;2023-09-07T10:27:48;3.83;;;3.50;;
11598;SDS011;5855;48.840;9.188;2023-09-07T10:30:16;3.80;;;3.42;;
11598;SDS011;5855;48.840;9.188;2023-09-07T10:32:44;3.72;;;3.17;;
11598;SDS011;5855;48.840;9.188;2023-09-07T10:35:12;3.70;;;3.20;;
11598;SDS011;5855;48.840;9.188;2023-09-07T10:37:41;4.47;;;3.45;;
11598;SDS011;5855;48.840;9.188;2023-09-07T10:40:10;3.55;;;3.25;;
11598;SDS011;5855;48.840;9.188;2023-09-07T10:42:38;4.63;;;3.28;;
11598;SDS011;5855;48.840;9.188;2023-09-07T10:45:12;3.47;;;3.17;;
11598;SDS011;5855;48.840;9.188;2023-09-07T10:47:41;4.45;;;3.33;;
11598;SDS011;5855;48.840;9.188;2023-09-07T10:50:10;3.97;;;3.10;;
11598;SDS011;5855;48.840;9.188;2023-09-07T10:52:38;3.08;;;2.80;;
11598;SDS011;5855;48.840;9.188;2023-09-07T10:55:06;4.90;;;2.75;;
11598;SDS011;5855;48.840;9.188;2023-09-07T10:57:41;4.15;;;2.45;;
11598;SDS011;5855;48.840;9.188;2023-09-07T11:00:11;3.25;;;2.83;;
11598;SDS011;5855;48.840;9.188;2023-09-07T11:02:39;4.47;;;3.28;;
11598;SDS011;5855;48.840;9.188;2023-09-07T11:05:08;4.68;;;3.03;;
11598;SDS011;5855;48.840;9.188;2023-09-07T11:07:35;3.05;;;2.75;;
11598;SDS011;5855;48.840;9.188;2023-09-07T11:10:05;2.70;;;2.50;;
11598;SDS011;5855;48.840;9.188;2023-09-07T11:12:36;3.58;;;3.00;;
11598;SDS011;5855;48.840;9.188;2023-09-07T11:15:04;3.90;;;2.80;;
11598;SDS011;5855;48.840;9.188;2023-09-07T11:17:32;3.10;;;2.60;;
11598;SDS011;5855;48.840;9.188;2023-09-07T11:20:02;2.83;;;2.50;;
11598;SDS011;5855;48.840;9.188;2023-09-07T11:22:31;2.92;;;2.60;;
11598;SDS011;5855;48.840;9.188;2023-09-07T11:24:59;2.75;;;2.42;;
11598;SDS011;5855;48.840;9.188;2023-09-07T11:27:28;3.67;;;2.55;;
11598;SDS011;5855;48.840;9.188;2023-09-07T11:29:56;2.50;;;2.30;;
11598;SDS011;5855;48.840;9.188;2023-09-07T11:32:23;5.72;;;2.53;;
11598;SDS011;5855;48.840;9.188;2023-09-07T11:34:51;5.55;;;2.58;;
11598;SDS011;5855;48.840;9.188;2023-09-07T11:37:22;4.00;;;2.67;;
11598;SDS011;5855;48.840;9.188;2023-09-07T11:39:50;3.72;;;2.53;;
11598;SDS011;5855;48.840;9.188;2023-09-07T11:42:17;3.95;;;2.30;;
11598;SDS011;5855;48.840;9.188;2023-09-07T11:44:43;3.90;;;2.20;;
11598;SDS011;5855;48.840;9.188;2023-09-07T11:47:10;3.78;;;2.20;;
11598;SDS011;5855;48.840;9.188;2023-09-07T11:49:37;3.67;;;2.13;;
11598;SDS011;5855;48.840;9.188;2023-09-07T11:52:06;2.15;;;1.95;;
11598;SDS011;5855;48.840;9.188;2023-09-07T11:54:33;2.75;;;1.90;;
11598;SDS011;5855;48.840;9.188;2023-09-07T11:57:00;2.47;;;2.25;;
11598;SDS011;5855;48.840;9.188;2023-09-07T11:59:26;4.10;;;2.30;;
11598;SDS011;5855;48.840;9.188;2023-09-07T12:01:54;2.38;;;1.85;;
11598;SDS011;5855;48.840;9.188;2023-09-07T12:04:21;2.10;;;2.00;;
11598;SDS011;5855;48.840;9.188;2023-09-07T12:06:48;3.88;;;2.10;;
11598;SDS011;5855;48.840;9.188;2023-09-07T12:09:16;1.85;;;1.75;;
11598;SDS011;5855;48.840;9.188;2023-09-07T12:11:43;2.28;;;2.08;;
11598;SDS011;5855;48.840;9.188;2023-09-07T12:14:10;1.98;;;1.80;;
11598;SDS011;5855;48.840;9.188;2023-09-07T12:16:37;2.88;;;2.03;;
11598;SDS011;5855;48.840;9.188;2023-09-07T12:19:04;1.80;;;1.70;;
11598;SDS011;5855;48.840;9.188;2023-09-07T12:21:31;3.25;;;1.88;;
11598;SDS011;5855;48.840;9.188;2023-09-07T12:23:58;2.47;;;1.67;;
11598;SDS011;5855;48.840;9.188;2023-09-07T12:26:27;2.45;;;1.92;;
11598;SDS011;5855;48.840;9.188;2023-09-07T12:28:53;1.83;;;1.73;;
11598;SDS011;5855;48.840;9.188;2023-09-07T12:31:20;2.20;;;2.00;;
11598;SDS011;5855;48.840;9.188;2023-09-07T12:33:47;2.95;;;1.67;;
11598;SDS011;5855;48.840;9.188;2023-09-07T12:36:14;3.28;;;1.63;;
11598;SDS011;5855;48.840;9.188;2023-09-07T12:38:41;1.73;;;1.52;;
11598;SDS011;5855;48.840;9.188;2023-09-07T12:41:07;3.08;;;1.50;;
11598;SDS011;5855;48.840;9.188;2023-09-07T12:43:36;2.10;;;1.58;;
11598;SDS011;5855;48.840;9.188;2023-09-07T12:46:02;1.95;;;1.50;;
11598;SDS011;5855;48.840;9.188;2023-09-07T12:48:29;1.85;;;1.50;;
11598;SDS011;5855;48.840;9.188;2023-09-07T12:50:56;1.83;;;1.60;;
11598;SDS011;5855;48.840;9.188;2023-09-07T12:53:23;1.60;;;1.50;;
11598;SDS011;5855;48.840;9.188;2023-09-07T12:55:50;2.38;;;1.55;;
11598;SDS011;5855;48.840;9.188;2023-09-07T12:58:18;2.25;;;1.55;;
11598;SDS011;5855;48.840;9.188;2023-09-07T13:00:47;2.17;;;1.33;;
11598;SDS011;5855;48.840;9.188;2023-09-07T13:03:16;2.60;;;1.60;;
11598;SDS011;5855;48.840;9.188;2023-09-07T13:05:43;1.48;;;1.38;;
11598;SDS011;5855;48.840;9.188;2023-09-07T13:08:10;2.38;;;1.50;;
11598;SDS011;5855;48.840;9.188;2023-09-07T13:10:37;1.50;;;1.33;;
11598;SDS011;5855;48.840;9.188;2023-09-07T13:13:04;3.03;;;1.50;;
11598;SDS011;5855;48.840;9.188;2023-09-07T13:15:30;2.42;;;1.40;;
11598;SDS011;5855;48.840;9.188;2023-09-07T13:17:59;2.58;;;1.52;;
11598;SDS011;5855;48.840;9.188;2023-09-07T13:20:25;2.55;;;1.40;;
11598;SDS011;5855;48.840;9.188;2023-09-07T13:22:52;2.42;;;1.40;;
11598;SDS011;5855;48.840;9.188;2023-09-07T13:25:19;2.10;;;1.30;;
11598;SDS011;5855;48.840;9.188;2023-09-07T13:27:46;2.88;;;1.27;;
11598;SDS011;5855;48.840;9.188;2023-09-07T13:30:13;1.60;;;1.42;;
11598;SDS011;5855;48.840;9.188;2023-09-07T13:32:39;1.58;;;1.40;;
11598;SDS011;5855;48.840;9.188;2023-09-07T13:35:08;1.60;;;1.50;;
11598;SDS011;5855;48.840;9.188;2023-09-07T13:37:35;1.55;;;1.20;;
11598;SDS011;5855;48.840;9.188;2023-09-07T13:40:02;3.15;;;1.30;;
11598;SDS011;5855;48.840;9.188;2023-09-07T13:42:29;1.50;;;1.40;;
11598;SDS011;5855;48.840;9.188;2023-09-07T13:44:56;1.75;;;1.30;;
11598;SDS011;5855;48.840;9.188;2023-09-07T13:47:22;1.40;;;1.30;;
11598;SDS011;5855;48.840;9.188;2023-09-07T13:49:49;2.83;;;1.30;;
11598;SDS011;5855;48.840;9.188;2023-09-07T13:52:18;3.53;;;1.33;;
11598;SDS011;5855;48.840;9.188;2023-09-07T13:54:47;2.83;;;1.55;;
11598;SDS011;5855;48.840;9.188;2023-09-07T13:57:14;1.50;;;1.38;;
11598;SDS011;5855;48.840;9.188;2023-09-07T13:59:41;1.80;;;1.40;;
11598;SDS011;5855;48.840;9.188;2023-09-07T14:02:08;1.65;;;1.30;;
11598;SDS011;5855;48.840;9.188;2023-09-07T14:04:35;2.13;;;1.35;;
11598;SDS011;5855;48.840;9.188;2023-09-07T14:07:03;1.30;;;1.20;;
11598;SDS011;5855;48.840;9.188;2023-09-07T14:09:32;2.58;;;1.30;;
11598;SDS011;5855;48.840;9.188;2023-09-07T14:11:59;1.40;;;1.30;;
11598;SDS011;5855;48.840;9.188;2023-09-07T14:14:26;1.63;;;1.52;;
11598;SDS011;5855;48.840;9.188;2023-09-07T14:16:53;2.40;;;1.60;;
11598;SDS011;5855;48.840;9.188;2023-09-07T14:19:23;1.30;;;1.20;;
11598;SDS011;5855;48.840;9.188;2023-09-07T14:21:52;2.08;;;1.50;;
11598;SDS011;5855;48.840;9.188;2023-09-07T14:24:19;1.40;;;1.30;;
11598;SDS011;5855;48.840;9.188;2023-09-07T14:26:47;3.70;;;1.30;;
11598;SDS011;5855;48.840;9.188;2023-09-07T14:29:14;2.33;;;1.52;;
11598;SDS011;5855;48.840;9.188;2023-09-07T14:31:41;2.65;;;1.60;;
11598;SDS011;5855;48.840;9.188;2023-09-07T14:34:08;2.97;;;1.63;;
11598;SDS011;5855;48.840;9.188;2023-09-07T14:36:36;1.50;;;1.40;;
11598;SDS011;5855;48.840;9.188;2023-09-07T14:39:05;1.95;;;1.50;;
11598;SDS011;5855;48.840;9.188;2023-09-07T14:41:33;2.25;;;1.40;;
11598;SDS011;5855;48.840;9.188;2023-09-07T14:44:02;1.50;;;1.40;;
11598;SDS011;5855;48.840;9.188;2023-09-07T14:46:30;2.38;;;1.27;;
11598;SDS011;5855;48.840;9.188;2023-09-07T14:48:56;2.10;;;1.52;;
11598;SDS011;5855;48.840;9.188;2023-09-07T14:51:23;1.83;;;1.40;;
11598;SDS011;5855;48.840;9.188;2023-09-07T14:53:50;2.83;;;1.40;;
11598;SDS011;5855;48.840;9.188;2023-09-07T14:56:18;1.52;;;1.25;;
11598;SDS011;5855;48.840;9.188;2023-09-07T14:58:45;1.67;;;1.30;;
11598;SDS011;5855;48.840;9.188;2023-09-07T15:01:13;1.55;;;1.27;;
11598;SDS011;5855;48.840;9.188;2023-09-07T15:03:40;1.20;;;1.10;;